Terminal Aerodrome Forecast
Issued by NWS Wichita, KS

Home | Current Version | Previous Version | Text Only | Print | Product List | Glossary On
Versions: 1 2 3 4 5 6 7 8 9 10 11 12 13 14 15 16
000
FTUS43 KICT 011039 AAB
TAFICT
TAF AMD
KICT 011039Z 0111/0206 14006KT P6SM VCSH SCT070 BKN120 OVC250
     FM011300 14008KT P6SM SCT020 BKN060
     FM011700 13010KT P6SM BKN100=

USA.gov is the U.S. government's official web portal to all federal, state and local government web resources and services.